createdAt,value
2023-04-15T00:00:34.464Z,93330.22
2023-04-15T00:03:38.522Z,93320.97
2023-04-15T00:06:42.304Z,93307.56
2023-04-15T00:09:46.660Z,93310.69
2023-04-15T00:12:49.988Z,93304.88
2023-04-15T00:15:53.860Z,93302.59
2023-04-15T00:18:57.637Z,93303.75
2023-04-15T00:22:02.052Z,93298.25
2023-04-15T00:25:06.105Z,93302.16
2023-04-15T00:28:10.300Z,93297.50
2023-04-15T00:31:14.118Z,93291.72
2023-04-15T00:34:17.791Z,93280.75
2023-04-15T00:37:21.761Z,93276.75
2023-04-15T00:40:27.096Z,93274.13
2023-04-15T00:43:30.211Z,93278.84
2023-04-15T00:46:38.122Z,93265.59
2023-04-15T00:49:42.048Z,93263.44
2023-04-15T00:52:45.923Z,93253.72
2023-04-15T00:55:49.896Z,93256.56
2023-04-15T00:58:53.475Z,93243.22
2023-04-15T01:01:57.883Z,93245.97
2023-04-15T01:05:01.721Z,93231.66
2023-04-15T01:08:06.520Z,93235.41
2023-04-15T01:11:13.687Z,93230.97
2023-04-15T01:14:18.106Z,93220.72
2023-04-15T01:17:21.752Z,93210.47
2023-04-15T01:20:25.354Z,93199.47
2023-04-15T01:23:29.626Z,93197.41
2023-04-15T01:26:33.815Z,93192.41
2023-04-15T01:29:40.045Z,93186.34
2023-04-15T01:32:43.943Z,93177.84
2023-04-15T01:35:47.812Z,93168.25
2023-04-15T01:38:52.830Z,93169.91
2023-04-15T01:41:58.813Z,93155.44
2023-04-15T01:45:02.954Z,93153.91
2023-04-15T01:48:06.801Z,93154.84
2023-04-15T01:51:14.183Z,93149.09
2023-04-15T01:54:17.970Z,93138.47
2023-04-15T01:57:22.048Z,93139.09
2023-04-15T02:00:27.858Z,93137.34
2023-04-15T02:03:31.113Z,93136.88
2023-04-15T02:06:35.216Z,93132.59
2023-04-15T02:09:39.317Z,93115.69
2023-04-15T02:12:44.928Z,93118.84
2023-04-15T02:15:50.086Z,93115.47
2023-04-15T02:18:55.690Z,93111.06
2023-04-15T02:21:59.174Z,93103.22
2023-04-15T02:25:02.485Z,93101.44
2023-04-15T02:28:08.279Z,93094.34
2023-04-15T02:31:11.377Z,93093.06
2023-04-15T02:34:15.240Z,93086.53
2023-04-15T02:37:21.494Z,93086.06
2023-04-15T02:40:24.551Z,93078.38
2023-04-15T02:43:28.276Z,93067.06
2023-04-15T02:46:32.067Z,93062.22
2023-04-15T02:49:35.783Z,93049.53
2023-04-15T02:52:42.988Z,93044.47
2023-04-15T02:55:47.110Z,93034.63
2023-04-15T02:58:51.699Z,93036.78
2023-04-15T03:01:56.004Z,93020.41
2023-04-15T03:05:00.402Z,93015.19
2023-04-15T03:08:04.853Z,93000.41
2023-04-15T03:11:09.471Z,92989.91
2023-04-15T03:14:13.252Z,92987.28
2023-04-15T03:17:21.541Z,92975.94
2023-04-15T03:20:26.219Z,92973.22
2023-04-15T03:23:30.340Z,92969.84
2023-04-15T03:26:34.117Z,92960.84
2023-04-15T03:29:44.835Z,92948.69
2023-04-15T03:32:50.386Z,92953.66
2023-04-15T03:35:54.640Z,92947.97
2023-04-15T03:38:58.638Z,92947.28
2023-04-15T03:42:04.362Z,92934.72
2023-04-15T03:45:08.628Z,92929.50
2023-04-15T03:48:17.922Z,92923.63
2023-04-15T03:51:21.443Z,92914.84
2023-04-15T03:54:25.031Z,92906.31
2023-04-15T03:57:28.062Z,92904.63
2023-04-15T04:00:31.625Z,92890.06
2023-04-15T04:03:34.998Z,92878.72
2023-04-15T04:06:38.421Z,92879.16
2023-04-15T04:09:42.608Z,92877.50
2023-04-15T04:12:45.613Z,92869.22
2023-04-15T04:15:49.633Z,92868.06
2023-04-15T04:18:53.317Z,92866.16
2023-04-15T04:21:56.619Z,92858.34
2023-04-15T04:25:01.101Z,92853.59
2023-04-15T04:28:05.039Z,92835.63
2023-04-15T04:31:08.661Z,92840.59
2023-04-15T04:34:12.757Z,92837.56
2023-04-15T04:37:16.592Z,92835.91
2023-04-15T04:40:20.350Z,92826.19
2023-04-15T04:43:24.107Z,92815.09
2023-04-15T04:46:27.909Z,92811.31
2023-04-15T04:49:31.607Z,92806.13
2023-04-15T04:52:35.501Z,92797.56
2023-04-15T04:55:39.085Z,92797.31
2023-04-15T04:58:43.287Z,92786.13
2023-04-15T05:01:47.150Z,92774.63
2023-04-15T05:04:52.639Z,92768.66
2023-04-15T05:07:56.284Z,92773.19
2023-04-15T05:10:59.950Z,92767.50
2023-04-15T05:14:03.562Z,92758.06
2023-04-15T05:17:06.676Z,92754.09
2023-04-15T05:20:10.318Z,92747.97
2023-04-15T05:23:13.909Z,92736.41
2023-04-15T05:26:17.128Z,92731.41
2023-04-15T05:29:20.837Z,92720.31
2023-04-15T05:32:23.958Z,92709.19
2023-04-15T05:35:28.168Z,92704.03
2023-04-15T05:38:31.674Z,92702.59
2023-04-15T05:41:35.687Z,92705.22
2023-04-15T05:44:38.547Z,92697.91
2023-04-15T05:47:42.754Z,92693.66
2023-04-15T05:50:46.103Z,92686.81
2023-04-15T05:53:49.318Z,92683.97
2023-04-15T05:56:52.934Z,92684.94
2023-04-15T05:59:58.145Z,92675.22
2023-04-15T06:03:01.965Z,92669.09
2023-04-15T06:06:06.253Z,92666.28
2023-04-15T06:09:09.545Z,92651.88
2023-04-15T06:12:14.053Z,92660.84
2023-04-15T06:15:17.710Z,92657.75
2023-04-15T06:18:21.686Z,92648.75
2023-04-15T06:21:24.671Z,92647.09
2023-04-15T06:24:28.454Z,92630.38
2023-04-15T06:27:32.618Z,92621.88
2023-04-15T06:30:37.879Z,92616.19
2023-04-15T06:33:41.102Z,92605.56
2023-04-15T06:36:44.748Z,92603.41
2023-04-15T06:39:48.475Z,92605.78
2023-04-15T06:42:52.533Z,92593.28
2023-04-15T06:45:57.215Z,92583.63
2023-04-15T06:49:00.748Z,92583.63
2023-04-15T06:52:05.631Z,92571.78
2023-04-15T06:55:09.938Z,92571.97
2023-04-15T06:58:13.648Z,92560.19
2023-04-15T07:01:16.997Z,92556.41
2023-04-15T07:04:21.335Z,92565.84
2023-04-15T07:07:25.356Z,92552.16
2023-04-15T07:10:28.972Z,92549.19
2023-04-15T07:13:33.653Z,92552.25
2023-04-15T07:16:37.245Z,92546.59
2023-04-15T07:19:41.552Z,92529.59
2023-04-15T07:22:45.265Z,92532.16
2023-04-15T07:25:50.002Z,92537.13
2023-04-15T07:28:53.562Z,92519.44
2023-04-15T07:31:58.137Z,92514.25
2023-04-15T07:35:01.111Z,92509.47
2023-04-15T07:38:05.229Z,92513.25
2023-04-15T07:41:08.931Z,92512.56
2023-04-15T07:44:13.537Z,92504.28
2023-04-15T07:47:17.288Z,92492.25
2023-04-15T07:50:21.492Z,92493.00
2023-04-15T07:53:25.031Z,92483.03
2023-04-15T07:56:28.963Z,92474.75
2023-04-15T07:59:34.005Z,92474.06
2023-04-15T08:02:40.333Z,92475.03
2023-04-15T08:05:44.288Z,92466.50
2023-04-15T08:08:48.570Z,92468.84
2023-04-15T08:11:52.262Z,92467.22
2023-04-15T08:14:57.540Z,92453.50
2023-04-15T08:18:01.944Z,92453.03
2023-04-15T08:21:06.520Z,92441.69
2023-04-15T08:24:09.492Z,92435.81
2023-04-15T08:27:13.658Z,92430.19
2023-04-15T08:30:16.570Z,92425.00
2023-04-15T08:33:20.392Z,92415.13
2023-04-15T08:36:23.949Z,92412.28
2023-04-15T08:39:27.967Z,92414.16
2023-04-15T08:42:38.460Z,92415.13
2023-04-15T08:45:42.234Z,92401.88
2023-04-15T08:48:48.544Z,92391.75
2023-04-15T08:51:51.533Z,92389.16
2023-04-15T08:54:59.628Z,92386.75
2023-04-15T08:58:03.877Z,92380.88
2023-04-15T09:01:07.774Z,92386.06
2023-04-15T09:04:13.395Z,92380.16
2023-04-15T09:07:16.860Z,92381.63
2023-04-15T09:10:20.950Z,92380.66
2023-04-15T09:13:24.291Z,92376.41
2023-04-15T09:16:29.402Z,92368.38
2023-04-15T09:19:35.095Z,92373.72
2023-04-15T09:22:39.802Z,92377.09
2023-04-15T09:25:43.910Z,92363.47
2023-04-15T09:28:47.901Z,92360.63
2023-04-15T09:31:51.527Z,92360.63
2023-04-15T09:34:55.456Z,92358.56
2023-04-15T09:38:10.304Z,92361.63
2023-04-15T09:41:22.382Z,92344.03
2023-04-15T09:44:27.444Z,92348.00
2023-04-15T09:47:34.068Z,92342.75
2023-04-15T09:50:43.659Z,92342.22
2023-04-15T09:53:46.567Z,92333.97
2023-04-15T09:56:50.525Z,92316.25
2023-04-15T09:59:54.564Z,92313.63
2023-04-15T10:02:58.405Z,92312.66
2023-04-15T10:06:03.065Z,92312.63
2023-04-15T10:09:08.012Z,92304.41
2023-04-15T10:12:12.341Z,92314.22
2023-04-15T10:15:18.601Z,92317.03
2023-04-15T10:18:24.674Z,92303.69
2023-04-15T10:21:29.467Z,92300.66
2023-04-15T10:24:33.828Z,92303.28
2023-04-15T10:27:37.662Z,92297.44
2023-04-15T10:30:41.492Z,92296.75
2023-04-15T10:33:47.044Z,92301.44
2023-04-15T10:36:52.127Z,92297.22
2023-04-15T10:39:55.204Z,92304.53
2023-04-15T10:43:02.939Z,92296.50
2023-04-15T10:46:08.982Z,92296.47
2023-04-15T10:49:17.082Z,92296.94
2023-04-15T10:52:26.448Z,92294.56
2023-04-15T10:55:34.224Z,92300.91
2023-04-15T10:58:44.603Z,92283.72
2023-04-15T11:01:57.169Z,92289.34
2023-04-15T11:05:01.845Z,92288.34
2023-04-15T11:08:05.242Z,92285.28
2023-04-15T11:11:09.039Z,92277.00
2023-04-15T11:14:19.594Z,92273.88
2023-04-15T11:17:30.184Z,92262.13
2023-04-15T11:20:34.391Z,92248.66
2023-04-15T11:23:44.990Z,92238.50
2023-04-15T11:26:48.475Z,92236.38
2023-04-15T11:29:53.271Z,92249.25
2023-04-15T11:33:00.925Z,92262.13
2023-04-15T11:36:05.114Z,92267.25
2023-04-15T11:39:08.849Z,92270.50
2023-04-15T11:42:18.921Z,92270.75
2023-04-15T11:45:22.442Z,92268.09
2023-04-15T11:48:35.180Z,92276.06
2023-04-15T11:51:38.146Z,92279.31
2023-04-15T11:54:41.468Z,92286.09
2023-04-15T11:57:45.466Z,92287.19
2023-04-15T12:01:00.640Z,92290.47
2023-04-15T12:04:13.308Z,92276.59
2023-04-15T12:07:17.177Z,92294.63
2023-04-15T12:10:20.958Z,92281.19
2023-04-15T12:13:24.606Z,92283.97
2023-04-15T12:16:29.168Z,92278.56
2023-04-15T12:19:37.425Z,92277.59
2023-04-15T12:22:41.802Z,92281.09
2023-04-15T12:25:45.376Z,92273.34
2023-04-15T12:28:48.424Z,92277.34
2023-04-15T12:32:15.982Z,92274.31
2023-04-15T12:35:22.268Z,92270.50
2023-04-15T12:38:26.237Z,92273.03
2023-04-15T12:41:30.276Z,92277.84
2023-04-15T12:44:34.903Z,92276.19
2023-04-15T12:47:38.753Z,92275.66
2023-04-15T12:50:42.679Z,92280.31
2023-04-15T12:53:46.275Z,92274.22
2023-04-15T12:56:51.573Z,92272.28
2023-04-15T12:59:55.292Z,92272.47
2023-04-15T13:02:59.112Z,92275.94
2023-04-15T13:06:05.272Z,92270.25
2023-04-15T13:09:08.677Z,92263.19
2023-04-15T13:12:14.362Z,92265.06
2023-04-15T13:15:21.515Z,92272.06
2023-04-15T13:18:24.720Z,92261.72
2023-04-15T13:21:29.017Z,92269.19
2023-04-15T13:24:32.648Z,92260.50
2023-04-15T13:27:36.295Z,92263.06
2023-04-15T13:30:40.276Z,92258.09
2023-04-15T13:33:44.457Z,92254.81
2023-04-15T13:36:48.106Z,92250.38
2023-04-15T13:39:51.510Z,92246.84
2023-04-15T13:42:54.408Z,92243.72
2023-04-15T13:45:58.412Z,92247.19
2023-04-15T13:49:01.542Z,92235.47
2023-04-15T13:52:05.160Z,92226.09
2023-04-15T13:55:20.611Z,92234.72
2023-04-15T13:58:25.350Z,92233.31
2023-04-15T14:01:30.091Z,92216.16
2023-04-15T14:04:34.028Z,92211.94
2023-04-15T14:07:37.896Z,92215.66
2023-04-15T14:10:42.395Z,92208.63
2023-04-15T14:13:46.015Z,92209.34
2023-04-15T14:16:49.099Z,92199.72
2023-04-15T14:19:52.168Z,92193.19
2023-04-15T14:22:55.927Z,92185.19
2023-04-15T14:25:59.555Z,92184.91
2023-04-15T14:29:02.900Z,92183.06
2023-04-15T14:32:11.860Z,92176.75
2023-04-15T14:35:16.401Z,92158.00
2023-04-15T14:38:20.351Z,92154.72
2023-04-15T14:41:24.182Z,92162.63
2023-04-15T14:44:27.848Z,92163.59
2023-04-15T14:47:32.431Z,92151.44
2023-04-15T14:50:36.449Z,92148.31
2023-04-15T14:53:40.763Z,92148.09
2023-04-15T14:56:44.434Z,92141.97
2023-04-15T14:59:47.402Z,92133.25
2023-04-15T15:02:50.462Z,92142.41
2023-04-15T15:05:53.625Z,92146.13
2023-04-15T15:08:56.595Z,92124.19
2023-04-15T15:11:59.487Z,92121.34
2023-04-15T15:15:09.177Z,92121.34
2023-04-15T15:18:20.915Z,92119.66
2023-04-15T15:21:24.608Z,92117.56
2023-04-15T15:24:27.890Z,92121.25
2023-04-15T15:27:31.954Z,92130.97
2023-04-15T15:30:35.191Z,92121.88
2023-04-15T15:33:38.160Z,92118.72
2023-04-15T15:36:42.047Z,92116.06
2023-04-15T15:39:45.341Z,92112.00
2023-04-15T15:42:51.376Z,92114.97
2023-04-15T15:45:56.497Z,92111.41
2023-04-15T15:48:59.584Z,92103.44
2023-04-15T15:52:03.654Z,92103.44
2023-04-15T15:55:07.426Z,92104.75
2023-04-15T15:58:10.736Z,92092.28
2023-04-15T16:01:13.865Z,92093.16
2023-04-15T16:04:18.286Z,92094.06
2023-04-15T16:07:21.909Z,92082.81
2023-04-15T16:10:25.038Z,92074.41
2023-04-15T16:13:46.992Z,92066.72
2023-04-15T16:16:49.944Z,92061.81
2023-04-15T16:19:55.825Z,92054.34
2023-04-15T16:23:11.698Z,92058.06
2023-04-15T16:26:14.838Z,92054.44
2023-04-15T16:29:18.890Z,92043.38
2023-04-15T16:32:23.269Z,92037.25
2023-04-15T16:35:29.492Z,92032.56
2023-04-15T16:38:32.974Z,92021.13
2023-04-15T16:41:35.879Z,92015.59
2023-04-15T16:44:39.197Z,92028.09
2023-04-15T16:47:42.338Z,92021.84
2023-04-15T16:50:47.039Z,92029.22
2023-04-15T16:53:50.955Z,92023.84
2023-04-15T16:56:54.618Z,92009.31
2023-04-15T16:59:57.643Z,92016.34
2023-04-15T17:03:04.178Z,92019.03
2023-04-15T17:06:07.342Z,92008.88
2023-04-15T17:09:10.698Z,92014.44
2023-04-15T17:12:14.901Z,91994.84
2023-04-15T17:15:19.557Z,91993.53
2023-04-15T17:18:23.270Z,91993.25
2023-04-15T17:21:27.165Z,91984.38
2023-04-15T17:24:30.149Z,91985.09
2023-04-15T17:27:34.229Z,91984.88
2023-04-15T17:30:37.922Z,91972.03
2023-04-15T17:34:01.434Z,91971.53
2023-04-15T17:37:06.437Z,91964.00
2023-04-15T17:40:10.398Z,91963.72
2023-04-15T17:43:14.016Z,91961.41
2023-04-15T17:46:17.228Z,91960.88
2023-04-15T17:49:20.299Z,91962.47
2023-04-15T17:52:23.519Z,91961.53
2023-04-15T17:55:26.534Z,91949.13
2023-04-15T17:58:30.773Z,91942.13
2023-04-15T18:01:34.397Z,91939.28
2023-04-15T18:04:38.150Z,91935.28
2023-04-15T18:07:41.661Z,91937.88
2023-04-15T18:10:44.531Z,91935.28
2023-04-15T18:13:47.475Z,91933.63
2023-04-15T18:16:50.406Z,91930.78
2023-04-15T18:19:53.628Z,91923.06
2023-04-15T18:22:56.889Z,91922.84
2023-04-15T18:26:00.178Z,91908.31
2023-04-15T18:29:04.294Z,91897.94
2023-04-15T18:32:07.221Z,91896.53
2023-04-15T18:35:10.837Z,91893.59
2023-04-15T18:38:13.843Z,91890.31
2023-04-15T18:41:17.861Z,91884.22
2023-04-15T18:44:21.206Z,91886.25
2023-04-15T18:47:26.917Z,91880.13
2023-04-15T18:50:30.044Z,91879.25
2023-04-15T18:53:33.328Z,91872.06
2023-04-15T18:56:36.481Z,91870.81
2023-04-15T18:59:40.266Z,91858.91
2023-04-15T19:02:44.760Z,91861.00
2023-04-15T19:05:48.017Z,91859.56
2023-04-15T19:08:52.548Z,91855.84
2023-04-15T19:11:57.304Z,91855.84
2023-04-15T19:15:01.366Z,91851.63
2023-04-15T19:18:10.956Z,91849.25
2023-04-15T19:21:14.861Z,91858.53
2023-04-15T19:24:18.771Z,91859.00
2023-04-15T19:27:21.817Z,91848.28
2023-04-15T19:30:25.200Z,91846.41
2023-04-15T19:33:31.633Z,91844.28
2023-04-15T19:36:35.382Z,91846.59
2023-04-15T19:39:38.877Z,91844.25
2023-04-15T19:42:41.915Z,91835.13
2023-04-15T19:45:47.298Z,91834.88
2023-04-15T19:48:50.349Z,91833.91
2023-04-15T19:51:53.373Z,91826.81
2023-04-15T19:54:56.642Z,91830.03
2023-04-15T19:58:00.418Z,91818.06
2023-04-15T20:01:03.727Z,91822.94
2023-04-15T20:04:07.647Z,91828.97
2023-04-15T20:07:11.810Z,91834.34
2023-04-15T20:10:15.429Z,91815.38
2023-04-15T20:13:18.399Z,91818.66
2023-04-15T20:16:22.415Z,91810.44
2023-04-15T20:19:26.576Z,91805.75
2023-04-15T20:22:29.541Z,91798.03
2023-04-15T20:25:32.471Z,91799.63
2023-04-15T20:28:35.430Z,91790.50
2023-04-15T20:31:38.798Z,91790.31
2023-04-15T20:34:42.213Z,91787.06
2023-04-15T20:37:45.600Z,91783.78
2023-04-15T20:40:49.372Z,91778.13
2023-04-15T20:43:53.287Z,91758.47
2023-04-15T20:46:57.097Z,91755.81
2023-04-15T20:50:00.366Z,91753.91
2023-04-15T20:53:04.893Z,91740.84
2023-04-15T20:56:08.619Z,91751.28
2023-04-15T20:59:12.294Z,91745.44
2023-04-15T21:02:15.525Z,91751.72
2023-04-15T21:05:19.318Z,91737.75
2023-04-15T21:08:29.760Z,91729.16
2023-04-15T21:11:53.343Z,91722.16
2023-04-15T21:14:57.878Z,91719.16
2023-04-15T21:18:01.002Z,91712.59
2023-04-15T21:21:04.516Z,91713.53
2023-04-15T21:24:08.541Z,91713.31
2023-04-15T21:27:12.690Z,91707.19
2023-04-15T21:30:16.331Z,91702.50
2023-04-15T21:33:21.384Z,91702.97
2023-04-15T21:36:25.125Z,91705.69
2023-04-15T21:39:29.452Z,91696.78
2023-04-15T21:42:33.045Z,91696.09
2023-04-15T21:45:39.592Z,91700.50
2023-04-15T21:48:43.400Z,91697.28
2023-04-15T21:51:48.287Z,91684.00
2023-04-15T21:54:51.950Z,91678.97
2023-04-15T21:57:55.589Z,91682.50
2023-04-15T22:01:00.810Z,91688.56
2023-04-15T22:04:04.728Z,91681.09
2023-04-15T22:07:08.523Z,91667.38
2023-04-15T22:10:12.795Z,91663.47
2023-04-15T22:13:17.122Z,91663.28
2023-04-15T22:16:21.341Z,91662.38
2023-04-15T22:19:26.479Z,91664.81
2023-04-15T22:22:43.223Z,91658.03
2023-04-15T22:25:48.221Z,91658.81
2023-04-15T22:28:52.548Z,91662.09
2023-04-15T22:31:56.210Z,91658.63
2023-04-15T22:35:00.160Z,91658.81
2023-04-15T22:38:05.376Z,91653.28
2023-04-15T22:41:08.811Z,91660.06
2023-04-15T22:44:12.518Z,91658.72
2023-04-15T22:47:16.727Z,91659.94
2023-04-15T22:50:20.145Z,91664.13
2023-04-15T22:53:24.147Z,91659.44
2023-04-15T22:56:27.694Z,91663.34
2023-04-15T22:59:31.876Z,91654.22
2023-04-15T23:02:35.983Z,91655.47
2023-04-15T23:05:41.025Z,91657.84
2023-04-15T23:08:48.441Z,91659.50
2023-04-15T23:11:52.444Z,91669.16
2023-04-15T23:14:56.390Z,91660.28
2023-04-15T23:18:01.401Z,91662.44
2023-04-15T23:21:05.118Z,91661.81
2023-04-15T23:24:09.092Z,91656.97
2023-04-15T23:27:12.572Z,91668.19
2023-04-15T23:30:16.523Z,91662.13
2023-04-15T23:33:20.133Z,91669.16
2023-04-15T23:36:24.076Z,91669.41
2023-04-15T23:39:27.695Z,91673.91
2023-04-15T23:42:31.705Z,91693.38
2023-04-15T23:45:34.877Z,91698.75
2023-04-15T23:48:39.346Z,91711.16
2023-04-15T23:51:43.007Z,91711.63
2023-04-15T23:54:47.014Z,91698.81
2023-04-15T23:57:50.268Z,91699.53
